sensor_id;sensor_type;location;lat;lon;timestamp;pressure;altitude;pressure_sealevel;temperature;humidity
28628;BME280;15815;46.760;19.604;2023-02-23T00:02:13;100311.63;;;8.97;64.64
28628;BME280;15815;46.760;19.604;2023-02-23T00:04:38;100327.25;;;9.02;64.79
28628;BME280;15815;46.760;19.604;2023-02-23T00:07:05;100319.22;;;9.01;64.06
28628;BME280;15815;46.760;19.604;2023-02-23T00:09:31;100320.06;;;9.05;64.01
28628;BME280;15815;46.760;19.604;2023-02-23T00:11:56;100312.41;;;8.98;64.16
28628;BME280;15815;46.760;19.604;2023-02-23T00:14:27;100309.59;;;8.94;63.46
28628;BME280;15815;46.760;19.604;2023-02-23T00:16:54;100320.03;;;9.01;63.53
28628;BME280;15815;46.760;19.604;2023-02-23T00:19:20;100314.81;;;8.99;63.59
28628;BME280;15815;46.760;19.604;2023-02-23T00:21:45;100321.66;;;9.02;63.35
28628;BME280;15815;46.760;19.604;2023-02-23T00:24:13;100306.81;;;9.02;63.19
28628;BME280;15815;46.760;19.604;2023-02-23T00:26:39;100316.47;;;9.08;63.59
28628;BME280;15815;46.760;19.604;2023-02-23T00:29:09;100333.66;;;9.03;63.53
28628;BME280;15815;46.760;19.604;2023-02-23T00:31:35;100311.59;;;8.90;63.56
28628;BME280;15815;46.760;19.604;2023-02-23T00:34:02;100320.03;;;9.01;62.85
28628;BME280;15815;46.760;19.604;2023-02-23T00:36:30;100312.81;;;8.96;63.38
28628;BME280;15815;46.760;19.604;2023-02-23T00:38:59;100324.03;;;9.00;62.57
28628;BME280;15815;46.760;19.604;2023-02-23T00:41:25;100308.00;;;8.93;63.23
28628;BME280;15815;46.760;19.604;2023-02-23T00:43:51;100326.44;;;8.94;62.75
28628;BME280;15815;46.760;19.604;2023-02-23T00:46:17;100315.19;;;8.87;63.06
28628;BME280;15815;46.760;19.604;2023-02-23T00:48:44;100320.38;;;8.85;62.53
28628;BME280;15815;46.760;19.604;2023-02-23T00:51:10;100316.78;;;8.88;62.52
28628;BME280;15815;46.760;19.604;2023-02-23T00:53:36;100314.78;;;8.89;62.08
28628;BME280;15815;46.760;19.604;2023-02-23T00:56:06;100337.66;;;9.02;62.11
28628;BME280;15815;46.760;19.604;2023-02-23T00:58:31;100323.22;;;8.92;62.80
28628;BME280;15815;46.760;19.604;2023-02-23T01:00:57;100336.44;;;8.99;63.08
28628;BME280;15815;46.760;19.604;2023-02-23T01:03:28;100315.19;;;8.87;62.94
28628;BME280;15815;46.760;19.604;2023-02-23T01:05:59;100330.50;;;9.04;62.30
28628;BME280;15815;46.760;19.604;2023-02-23T01:08:25;100315.19;;;8.91;62.19
28628;BME280;15815;46.760;19.604;2023-02-23T01:10:51;100316.78;;;8.85;62.78
28628;BME280;15815;46.760;19.604;2023-02-23T01:13:20;100335.63;;;8.91;63.17
28628;BME280;15815;46.760;19.604;2023-02-23T01:15:47;100319.91;;;8.76;63.65
28628;BME280;15815;46.760;19.604;2023-02-23T01:18:14;100324.34;;;8.77;63.00
28628;BME280;15815;46.760;19.604;2023-02-23T01:20:40;100313.06;;;8.66;63.49
28628;BME280;15815;46.760;19.604;2023-02-23T01:23:07;100319.06;;;8.68;63.89
28628;BME280;15815;46.760;19.604;2023-02-23T01:25:33;100327.50;;;8.76;63.58
28628;BME280;15815;46.760;19.604;2023-02-23T01:27:59;100321.56;;;8.81;63.90
28628;BME280;15815;46.760;19.604;2023-02-23T01:30:25;100309.47;;;8.70;64.25
28628;BME280;15815;46.760;19.604;2023-02-23T01:32:51;100320.69;;;8.70;64.70
28628;BME280;15815;46.760;19.604;2023-02-23T01:35:17;100327.91;;;8.74;64.26
28628;BME280;15815;46.760;19.604;2023-02-23T01:37:43;100338.41;;;8.84;64.26
28628;BME280;15815;46.760;19.604;2023-02-23T01:40:15;100324.69;;;8.72;63.97
28628;BME280;15815;46.760;19.604;2023-02-23T01:42:47;100332.28;;;8.68;64.64
28628;BME280;15815;46.760;19.604;2023-02-23T01:45:25;100320.69;;;8.70;64.83
28628;BME280;15815;46.760;19.604;2023-02-23T01:48:08;100328.69;;;8.71;65.17
28628;BME280;15815;46.760;19.604;2023-02-23T01:50:46;100332.28;;;8.68;64.85
28628;BME280;15815;46.760;19.604;2023-02-23T01:53:12;100329.56;;;8.79;64.48
28628;BME280;15815;46.760;19.604;2023-02-23T01:55:40;100320.28;;;8.71;65.09
28628;BME280;15815;46.760;19.604;2023-02-23T01:58:10;100330.72;;;8.74;64.75
28628;BME280;15815;46.760;19.604;2023-02-23T02:00:36;100316.22;;;8.54;65.33
28628;BME280;15815;46.760;19.604;2023-02-23T02:03:09;100315.41;;;8.54;65.13
28628;BME280;15815;46.760;19.604;2023-02-23T02:05:38;100298.09;;;8.38;65.66
28628;BME280;15815;46.760;19.604;2023-02-23T02:08:11;100319.34;;;8.46;65.96
28628;BME280;15815;46.760;19.604;2023-02-23T02:10:37;100320.53;;;8.45;66.15
28628;BME280;15815;46.760;19.604;2023-02-23T02:13:04;100293.22;;;8.31;66.47
28628;BME280;15815;46.760;19.604;2023-02-23T02:15:34;100298.00;;;8.30;66.28
28628;BME280;15815;46.760;19.604;2023-02-23T02:18:21;100318.50;;;8.42;66.74
28628;BME280;15815;46.760;19.604;2023-02-23T02:23:55;100328.16;;;8.48;66.49
28628;BME280;15815;46.760;19.604;2023-02-23T02:26:52;100328.13;;;8.44;67.02
28628;BME280;15815;46.760;19.604;2023-02-23T02:38:33;100311.59;;;8.28;67.37
28628;BME280;15815;46.760;19.604;2023-02-23T02:41:06;100326.47;;;8.36;67.34
28628;BME280;15815;46.760;19.604;2023-02-23T02:54:50;100338.03;;;8.31;67.74
28628;BME280;15815;46.760;19.604;2023-02-23T02:57:19;100331.50;;;8.20;67.72
28628;BME280;15815;46.760;19.604;2023-02-23T02:59:50;100321.03;;;8.06;68.12
28628;BME280;15815;46.760;19.604;2023-02-23T03:02:21;100339.50;;;8.18;68.38
28628;BME280;15815;46.760;19.604;2023-02-23T03:04:47;100307.69;;;7.92;67.99
28628;BME280;15815;46.760;19.604;2023-02-23T03:21:30;100325.22;;;7.86;68.00
28628;BME280;15815;46.760;19.604;2023-02-23T03:24:16;100321.59;;;7.82;67.94
28628;BME280;15815;46.760;19.604;2023-02-23T03:26:51;100344.47;;;7.91;67.40
28628;BME280;15815;46.760;19.604;2023-02-23T03:29:36;100346.44;;;7.87;67.77
28628;BME280;15815;46.760;19.604;2023-02-23T03:32:29;100349.66;;;7.89;67.53
28628;BME280;15815;46.760;19.604;2023-02-23T03:35:26;100347.63;;;7.86;67.22
28628;BME280;15815;46.760;19.604;2023-02-23T03:38:21;100344.75;;;7.79;66.75
28628;BME280;15815;46.760;19.604;2023-02-23T03:40:53;100331.16;;;7.77;66.96
28628;BME280;15815;46.760;19.604;2023-02-23T03:43:37;100337.50;;;7.70;67.17
28628;BME280;15815;46.760;19.604;2023-02-23T03:46:08;100328.22;;;7.63;67.49
28628;BME280;15815;46.760;19.604;2023-02-23T03:48:37;100361.13;;;7.77;67.50
28628;BME280;15815;46.760;19.604;2023-02-23T03:51:05;100358.72;;;7.75;67.15
28628;BME280;15815;46.760;19.604;2023-02-23T03:53:39;100342.63;;;7.65;66.91
28628;BME280;15815;46.760;19.604;2023-02-23T03:56:08;100334.59;;;7.63;66.56
28628;BME280;15815;46.760;19.604;2023-02-23T03:58:41;100351.13;;;7.75;66.35
28628;BME280;15815;46.760;19.604;2023-02-23T04:01:12;100338.22;;;7.64;65.78
28628;BME280;15815;46.760;19.604;2023-02-23T04:03:41;100351.38;;;7.63;65.88
28628;BME280;15815;46.760;19.604;2023-02-23T04:06:11;100351.91;;;7.72;65.47
28628;BME280;15815;46.760;19.604;2023-02-23T04:08:38;100351.00;;;7.65;65.35
28628;BME280;15815;46.760;19.604;2023-02-23T04:11:18;100333.31;;;7.54;65.08
28628;BME280;15815;46.760;19.604;2023-02-23T04:13:51;100329.63;;;7.42;65.31
28628;BME280;15815;46.760;19.604;2023-02-23T04:16:18;100351.75;;;7.58;65.34
28628;BME280;15815;46.760;19.604;2023-02-23T04:18:44;100330.06;;;7.48;64.95
28628;BME280;15815;46.760;19.604;2023-02-23T04:21:12;100346.91;;;7.55;65.07
28628;BME280;15815;46.760;19.604;2023-02-23T04:23:38;100346.91;;;7.55;64.55
28628;BME280;15815;46.760;19.604;2023-02-23T04:26:06;100360.56;;;7.60;64.48
28628;BME280;15815;46.760;19.604;2023-02-23T04:28:31;100353.66;;;7.51;64.40
28628;BME280;15815;46.760;19.604;2023-02-23T04:30:57;100360.53;;;7.57;64.26
28628;BME280;15815;46.760;19.604;2023-02-23T04:33:23;100358.91;;;7.56;64.88
28628;BME280;15815;46.760;19.604;2023-02-23T04:35:48;100350.91;;;7.54;65.12
28628;BME280;15815;46.760;19.604;2023-02-23T04:38:16;100357.69;;;7.53;65.25
28628;BME280;15815;46.760;19.604;2023-02-23T04:40:43;100349.22;;;7.46;65.61
28628;BME280;15815;46.760;19.604;2023-02-23T04:43:11;100343.53;;;7.39;66.50
28628;BME280;15815;46.760;19.604;2023-02-23T04:45:37;100354.81;;;7.46;66.87
28628;BME280;15815;46.760;19.604;2023-02-23T04:48:03;100358.03;;;7.48;66.67
28628;BME280;15815;46.760;19.604;2023-02-23T04:50:29;100340.00;;;7.42;66.87
28628;BME280;15815;46.760;19.604;2023-02-23T04:52:56;100341.19;;;7.41;67.39
28628;BME280;15815;46.760;19.604;2023-02-23T04:55:24;100366.44;;;7.48;68.01
28628;BME280;15815;46.760;19.604;2023-02-23T04:57:56;100353.19;;;7.41;68.21
28628;BME280;15815;46.760;19.604;2023-02-23T05:00:21;100362.44;;;7.49;68.62
28628;BME280;15815;46.760;19.604;2023-02-23T05:02:47;100347.09;;;7.36;68.37
28628;BME280;15815;46.760;19.604;2023-02-23T05:05:13;100344.22;;;7.29;68.46
28628;BME280;15815;46.760;19.604;2023-02-23T05:07:39;100356.66;;;7.35;68.29
28628;BME280;15815;46.760;19.604;2023-02-23T05:10:05;100350.59;;;7.26;68.23
28628;BME280;15815;46.760;19.604;2023-02-23T05:12:31;100359.81;;;7.30;68.29
28628;BME280;15815;46.760;19.604;2023-02-23T05:14:57;100368.25;;;7.33;68.37
28628;BME280;15815;46.760;19.604;2023-02-23T05:17:23;100348.13;;;7.21;67.96
28628;BME280;15815;46.760;19.604;2023-02-23T05:19:48;100344.09;;;7.18;68.05
28628;BME280;15815;46.760;19.604;2023-02-23T05:22:17;100343.66;;;7.12;67.64
28628;BME280;15815;46.760;19.604;2023-02-23T05:24:42;100357.66;;;7.16;67.63
28628;BME280;15815;46.760;19.604;2023-02-23T05:27:08;100359.22;;;7.13;68.00
28628;BME280;15815;46.760;19.604;2023-02-23T05:29:35;100373.66;;;7.19;67.91
28628;BME280;15815;46.760;19.604;2023-02-23T05:32:00;100379.25;;;7.19;67.66
28628;BME280;15815;46.760;19.604;2023-02-23T05:34:27;100366.44;;;7.15;67.82
28628;BME280;15815;46.760;19.604;2023-02-23T05:36:52;100356.69;;;7.05;67.75
28628;BME280;15815;46.760;19.604;2023-02-23T05:39:18;100357.63;;;7.12;67.44
28628;BME280;15815;46.760;19.604;2023-02-23T05:41:45;100353.53;;;7.06;67.11
28628;BME280;15815;46.760;19.604;2023-02-23T05:44:10;100373.28;;;7.21;67.33
28628;BME280;15815;46.760;19.604;2023-02-23T05:46:36;100369.22;;;7.15;67.29
28628;BME280;15815;46.760;19.604;2023-02-23T05:49:07;100388.13;;;7.25;67.61
28628;BME280;15815;46.760;19.604;2023-02-23T05:51:33;100380.84;;;7.17;67.50
28628;BME280;15815;46.760;19.604;2023-02-23T05:53:59;100374.00;;;7.14;67.29
28628;BME280;15815;46.760;19.604;2023-02-23T05:56:26;100381.59;;;7.13;67.50
28628;BME280;15815;46.760;19.604;2023-02-23T05:58:56;100394.84;;;7.20;67.49
28628;BME280;15815;46.760;19.604;2023-02-23T06:01:22;100388.03;;;7.18;67.08
28628;BME280;15815;46.760;19.604;2023-02-23T06:03:49;100405.22;;;7.20;67.19
28628;BME280;15815;46.760;19.604;2023-02-23T06:06:15;100395.91;;;7.12;67.48
28628;BME280;15815;46.760;19.604;2023-02-23T06:08:41;100407.16;;;7.16;67.48
28628;BME280;15815;46.760;19.604;2023-02-23T06:11:08;100404.81;;;7.18;67.19
28628;BME280;15815;46.760;19.604;2023-02-23T06:13:34;100405.56;;;7.15;67.38
28628;BME280;15815;46.760;19.604;2023-02-23T06:16:00;100413.66;;;7.23;67.40
28628;BME280;15815;46.760;19.604;2023-02-23T06:18:26;100391.50;;;7.11;67.51
28628;BME280;15815;46.760;19.604;2023-02-23T06:20:52;100390.19;;;7.01;68.11
28628;BME280;15815;46.760;19.604;2023-02-23T06:23:19;100408.03;;;7.20;67.35
28628;BME280;15815;46.760;19.604;2023-02-23T06:25:49;100422.44;;;7.22;67.34
28628;BME280;15815;46.760;19.604;2023-02-23T06:28:15;100428.81;;;7.22;67.29
28628;BME280;15815;46.760;19.604;2023-02-23T06:30:42;100438.47;;;7.28;67.23
28628;BME280;15815;46.760;19.604;2023-02-23T06:33:07;100426.50;;;7.28;68.07
28628;BME280;15815;46.760;19.604;2023-02-23T06:35:33;100440.03;;;7.26;67.73
28628;BME280;15815;46.760;19.604;2023-02-23T06:38:00;100419.13;;;7.12;68.01
28628;BME280;15815;46.760;19.604;2023-02-23T06:40:28;100398.72;;;7.12;67.79
28628;BME280;15815;46.760;19.604;2023-02-23T06:42:53;100426.44;;;7.24;67.88
28628;BME280;15815;46.760;19.604;2023-02-23T06:45:19;100432.88;;;7.28;68.09
28628;BME280;15815;46.760;19.604;2023-02-23T06:47:45;100420.81;;;7.21;67.73
28628;BME280;15815;46.760;19.604;2023-02-23T06:50:11;100427.00;;;7.37;67.63
28628;BME280;15815;46.760;19.604;2023-02-23T06:52:42;100424.31;;;7.44;67.19
28628;BME280;15815;46.760;19.604;2023-02-23T06:55:08;100425.91;;;7.45;67.16
28628;BME280;15815;46.760;19.604;2023-02-23T06:57:33;100427.50;;;7.42;66.48
28628;BME280;15815;46.760;19.604;2023-02-23T06:59:59;100418.59;;;7.37;66.33
28628;BME280;15815;46.760;19.604;2023-02-23T07:02:24;100426.69;;;7.42;66.82
28628;BME280;15815;46.760;19.604;2023-02-23T07:04:50;100433.19;;;7.53;66.45
28628;BME280;15815;46.760;19.604;2023-02-23T07:07:17;100430.41;;;7.53;66.25
28628;BME280;15815;46.760;19.604;2023-02-23T07:09:42;100432.91;;;7.62;66.24
28628;BME280;15815;46.760;19.604;2023-02-23T07:12:08;100424.00;;;7.53;65.47
28628;BME280;15815;46.760;19.604;2023-02-23T07:14:34;100438.22;;;7.70;65.44
28628;BME280;15815;46.760;19.604;2023-02-23T07:17:00;100435.03;;;7.72;65.15
28628;BME280;15815;46.760;19.604;2023-02-23T07:19:26;100410.91;;;7.60;65.00
28628;BME280;15815;46.760;19.604;2023-02-23T07:21:52;100433.13;;;7.80;64.76
28628;BME280;15815;46.760;19.604;2023-02-23T07:24:18;100438.44;;;7.92;64.50
28628;BME280;15815;46.760;19.604;2023-02-23T07:26:44;100426.38;;;7.84;64.35
28628;BME280;15815;46.760;19.604;2023-02-23T07:29:10;100427.63;;;7.90;64.65
28628;BME280;15815;46.760;19.604;2023-02-23T07:31:35;100438.56;;;8.02;63.92
28628;BME280;15815;46.760;19.604;2023-02-23T07:34:02;100432.59;;;8.07;63.59
28628;BME280;15815;46.760;19.604;2023-02-23T07:36:28;100437.84;;;8.13;63.59
28628;BME280;15815;46.760;19.604;2023-02-23T07:38:55;100433.88;;;8.17;63.21
28628;BME280;15815;46.760;19.604;2023-02-23T07:41:21;100420.63;;;8.11;63.71
28628;BME280;15815;46.760;19.604;2023-02-23T07:43:46;100437.19;;;8.26;62.86
28628;BME280;15815;46.760;19.604;2023-02-23T07:46:12;100425.59;;;8.24;63.26
28628;BME280;15815;46.760;19.604;2023-02-23T07:48:42;100443.34;;;8.39;62.32
28628;BME280;15815;46.760;19.604;2023-02-23T07:51:09;100429.31;;;8.35;62.57
28628;BME280;15815;46.760;19.604;2023-02-23T07:53:34;100430.19;;;8.47;62.43
28628;BME280;15815;46.760;19.604;2023-02-23T07:56:00;100442.72;;;8.60;62.04
28628;BME280;15815;46.760;19.604;2023-02-23T07:58:27;100435.06;;;8.53;61.26
28628;BME280;15815;46.760;19.604;2023-02-23T08:00:53;100441.97;;;8.70;61.71
28628;BME280;15815;46.760;19.604;2023-02-23T08:03:19;100422.72;;;8.65;60.89
28628;BME280;15815;46.760;19.604;2023-02-23T08:05:45;100439.28;;;8.84;61.31
28628;BME280;15815;46.760;19.604;2023-02-23T08:08:12;100442.94;;;8.92;60.09
28628;BME280;15815;46.760;19.604;2023-02-23T08:10:38;100431.75;;;8.95;60.05
28628;BME280;15815;46.760;19.604;2023-02-23T08:13:04;100426.22;;;9.06;59.73
28628;BME280;15815;46.760;19.604;2023-02-23T08:15:30;100441.94;;;9.25;59.07
28628;BME280;15815;46.760;19.604;2023-02-23T08:17:56;100446.06;;;9.45;59.16
28628;BME280;15815;46.760;19.604;2023-02-23T08:20:22;100449.34;;;9.62;58.33
28628;BME280;15815;46.760;19.604;2023-02-23T08:22:55;100449.69;;;9.53;57.43
28628;BME280;15815;46.760;19.604;2023-02-23T08:25:21;100430.44;;;9.51;56.88
28628;BME280;15815;46.760;19.604;2023-02-23T08:27:47;100454.16;;;9.65;57.02
28628;BME280;15815;46.760;19.604;2023-02-23T08:30:13;100431.31;;;9.70;56.73
28628;BME280;15815;46.760;19.604;2023-02-23T08:32:40;100462.28;;;9.91;56.55
28628;BME280;15815;46.760;19.604;2023-02-23T08:35:06;100437.34;;;9.72;55.98
28628;BME280;15815;46.760;19.604;2023-02-23T08:37:32;100445.44;;;9.91;54.98
28628;BME280;15815;46.760;19.604;2023-02-23T08:39:58;100452.25;;;9.90;53.98
28628;BME280;15815;46.760;19.604;2023-02-23T08:42:26;100457.13;;;10.14;54.57
28628;BME280;15815;46.760;19.604;2023-02-23T08:44:52;100452.72;;;10.17;53.81
28628;BME280;15815;46.760;19.604;2023-02-23T08:47:18;100454.72;;;10.16;54.08
28628;BME280;15815;46.760;19.604;2023-02-23T08:49:51;100446.31;;;10.24;53.79
28628;BME280;15815;46.760;19.604;2023-02-23T08:52:16;100467.63;;;10.42;53.05
28628;BME280;15815;46.760;19.604;2023-02-23T08:54:42;100462.41;;;10.44;52.45
28628;BME280;15815;46.760;19.604;2023-02-23T08:57:09;100467.22;;;10.55;52.24
28628;BME280;15815;46.760;19.604;2023-02-23T08:59:34;100458.81;;;10.51;52.58
28628;BME280;15815;46.760;19.604;2023-02-23T09:02:00;100473.66;;;10.69;52.64
28628;BME280;15815;46.760;19.604;2023-02-23T09:04:25;100464.44;;;10.72;52.53
28628;BME280;15815;46.760;19.604;2023-02-23T09:06:51;100476.47;;;10.83;51.65
28628;BME280;15815;46.760;19.604;2023-02-23T09:09:18;100476.44;;;10.94;51.48
28628;BME280;15815;46.760;19.604;2023-02-23T09:11:43;100480.88;;;11.06;51.57
28628;BME280;15815;46.760;19.604;2023-02-23T09:14:09;100475.66;;;11.04;51.55
28628;BME280;15815;46.760;19.604;2023-02-23T09:16:35;100474.84;;;11.07;51.02
28628;BME280;15815;46.760;19.604;2023-02-23T09:19:02;100476.06;;;11.03;50.27
28628;BME280;15815;46.760;19.604;2023-02-23T09:21:28;100480.44;;;11.22;50.96
28628;BME280;15815;46.760;19.604;2023-02-23T09:23:54;100481.63;;;11.17;50.72
28628;BME280;15815;46.760;19.604;2023-02-23T09:26:22;100482.38;;;11.46;51.20
28628;BME280;15815;46.760;19.604;2023-02-23T09:28:49;100477.56;;;11.46;50.11
28628;BME280;15815;46.760;19.604;2023-02-23T09:31:18;100476.00;;;11.31;49.37
28628;BME280;15815;46.760;19.604;2023-02-23T09:33:44;100496.84;;;11.48;50.58
28628;BME280;15815;46.760;19.604;2023-02-23T09:36:12;100489.63;;;11.43;49.82
28628;BME280;15815;46.760;19.604;2023-02-23T09:38:38;100476.78;;;11.35;50.06
28628;BME280;15815;46.760;19.604;2023-02-23T09:46:27;100491.19;;;11.62;49.62
28628;BME280;15815;46.760;19.604;2023-02-23T09:49:00;100478.72;;;11.63;48.94
28628;BME280;15815;46.760;19.604;2023-02-23T09:51:39;100483.91;;;11.72;49.32
28628;BME280;15815;46.760;19.604;2023-02-23T09:54:15;100464.22;;;11.65;49.16
28628;BME280;15815;46.760;19.604;2023-02-23T09:56:48;100493.91;;;11.91;48.85
28628;BME280;15815;46.760;19.604;2023-02-23T09:59:16;100474.66;;;11.82;48.41
28628;BME280;15815;46.760;19.604;2023-02-23T10:04:42;100489.03;;;12.05;48.46
28628;BME280;15815;46.760;19.604;2023-02-23T10:13:02;100483.25;;;12.27;47.40
28628;BME280;15815;46.760;19.604;2023-02-23T10:21:12;100481.09;;;12.49;47.13
28628;BME280;15815;46.760;19.604;2023-02-23T10:26:06;100486.72;;;12.49;47.48
28628;BME280;15815;46.760;19.604;2023-02-23T10:28:35;100473.88;;;12.44;47.27
28628;BME280;15815;46.760;19.604;2023-02-23T10:31:15;100454.53;;;12.46;46.83
28628;BME280;15815;46.760;19.604;2023-02-23T10:33:44;100464.91;;;12.56;47.15
28628;BME280;15815;46.760;19.604;2023-02-23T10:36:27;100479.41;;;12.58;47.46
28628;BME280;15815;46.760;19.604;2023-02-23T10:38:53;100454.06;;;12.55;46.97
28628;BME280;15815;46.760;19.604;2023-02-23T10:41:19;100449.59;;;12.61;46.83
28628;BME280;15815;46.760;19.604;2023-02-23T10:43:46;100454.31;;;12.75;46.53
28628;BME280;15815;46.760;19.604;2023-02-23T10:46:21;100475.44;;;13.00;46.92
28628;BME280;15815;46.760;19.604;2023-02-23T10:48:49;100454.09;;;12.99;46.49
28628;BME280;15815;46.760;19.604;2023-02-23T10:51:24;100463.69;;;13.06;46.52
28628;BME280;15815;46.760;19.604;2023-02-23T10:53:51;100460.41;;;13.11;46.36
28628;BME280;15815;46.760;19.604;2023-02-23T10:56:17;100453.97;;;13.10;46.14
28628;BME280;15815;46.760;19.604;2023-02-23T10:58:50;100454.63;;;13.28;46.83
28628;BME280;15815;46.760;19.604;2023-02-23T11:03:55;100451.84;;;13.25;46.68
28628;BME280;15815;46.760;19.604;2023-02-23T11:06:31;100445.69;;;13.34;46.01
28628;BME280;15815;46.760;19.604;2023-02-23T11:08:56;100431.19;;;13.32;46.29
28628;BME280;15815;46.760;19.604;2023-02-23T11:11:26;100440.13;;;13.60;45.85
28628;BME280;15815;46.760;19.604;2023-02-23T11:13:55;100437.69;;;13.63;45.62
28628;BME280;15815;46.760;19.604;2023-02-23T11:16:28;100421.22;;;13.57;45.66
28628;BME280;15815;46.760;19.604;2023-02-23T11:19:03;100429.00;;;13.80;45.61
28628;BME280;15815;46.760;19.604;2023-02-23T11:21:36;100414.59;;;13.71;45.59
28628;BME280;15815;46.760;19.604;2023-02-23T11:26:51;100404.84;;;13.76;44.73
28628;BME280;15815;46.760;19.604;2023-02-23T11:29:37;100409.81;;;13.65;44.93
28628;BME280;15815;46.760;19.604;2023-02-23T11:32:19;100423.59;;;13.59;45.05
28628;BME280;15815;46.760;19.604;2023-02-23T11:34:47;100417.16;;;13.58;45.27
28628;BME280;15815;46.760;19.604;2023-02-23T11:39:50;100419.09;;;13.65;45.37
28628;BME280;15815;46.760;19.604;2023-02-23T11:42:23;100408.38;;;13.53;44.32
28628;BME280;15815;46.760;19.604;2023-02-23T11:45:15;100409.00;;;13.64;44.77
28628;BME280;15815;46.760;19.604;2023-02-23T11:47:53;100417.00;;;13.69;45.47
28628;BME280;15815;46.760;19.604;2023-02-23T11:50:33;100423.19;;;13.91;44.94
28628;BME280;15815;46.760;19.604;2023-02-23T11:53:10;100426.31;;;13.97;44.44
28628;BME280;15815;46.760;19.604;2023-02-23T11:55:37;100405.22;;;13.78;44.93
28628;BME280;15815;46.760;19.604;2023-02-23T11:58:53;100409.00;;;13.95;44.12
28628;BME280;15815;46.760;19.604;2023-02-23T12:00:55;100410.41;;;14.10;44.12
28628;BME280;15815;46.760;19.604;2023-02-23T12:03:22;100385.97;;;13.96;44.60
28628;BME280;15815;46.760;19.604;2023-02-23T12:05:50;100409.72;;;14.29;43.66
28628;BME280;15815;46.760;19.604;2023-02-23T12:08:33;100409.59;;;14.36;44.00
28628;BME280;15815;46.760;19.604;2023-02-23T12:11:06;100394.00;;;14.51;43.92
28628;BME280;15815;46.760;19.604;2023-02-23T12:13:48;100411.41;;;14.50;43.85
28628;BME280;15815;46.760;19.604;2023-02-23T12:16:20;100394.97;;;14.41;43.41
28628;BME280;15815;46.760;19.604;2023-02-23T12:19:26;100380.44;;;14.43;43.41
28628;BME280;15815;46.760;19.604;2023-02-23T12:30:13;100371.13;;;14.89;42.47
28628;BME280;15815;46.760;19.604;2023-02-23T12:32:45;100358.66;;;14.87;42.83
28628;BME280;15815;46.760;19.604;2023-02-23T12:38:25;100372.69;;;15.13;42.37
28628;BME280;15815;46.760;19.604;2023-02-23T12:41:00;100371.44;;;14.95;42.93
28628;BME280;15815;46.760;19.604;2023-02-23T12:43:37;100366.56;;;14.95;42.49
28628;BME280;15815;46.760;19.604;2023-02-23T12:46:11;100381.59;;;14.92;42.85
28628;BME280;15815;46.760;19.604;2023-02-23T12:52:08;100354.03;;;14.73;43.25
28628;BME280;15815;46.760;19.604;2023-02-23T12:54:36;100359.16;;;14.81;43.13
28628;BME280;15815;46.760;19.604;2023-02-23T13:00:24;100348.28;;;14.80;43.82
28628;BME280;15815;46.760;19.604;2023-02-23T13:06:07;100358.06;;;14.95;43.06
28628;BME280;15815;46.760;19.604;2023-02-23T13:14:29;100342.41;;;14.91;43.40
28628;BME280;15815;46.760;19.604;2023-02-23T13:17:16;100340.00;;;14.89;43.10
28628;BME280;15815;46.760;19.604;2023-02-23T13:20:02;100344.88;;;15.08;42.99
28628;BME280;15815;46.760;19.604;2023-02-23T13:24:59;100346.84;;;15.11;42.54
28628;BME280;15815;46.760;19.604;2023-02-23T13:27:42;100341.88;;;14.96;42.85
28628;BME280;15815;46.760;19.604;2023-02-23T13:30:11;100342.78;;;15.12;42.74
28628;BME280;15815;46.760;19.604;2023-02-23T13:32:37;100346.69;;;14.99;42.46
28628;BME280;15815;46.760;19.604;2023-02-23T13:35:05;100339.59;;;15.10;42.67
28628;BME280;15815;46.760;19.604;2023-02-23T13:43:21;100342.09;;;15.05;42.42
28628;BME280;15815;46.760;19.604;2023-02-23T13:48:22;100334.34;;;14.89;43.09
28628;BME280;15815;46.760;19.604;2023-02-23T13:51:04;100329.66;;;14.79;42.56
28628;BME280;15815;46.760;19.604;2023-02-23T13:53:43;100337.88;;;14.73;43.03
28628;BME280;15815;46.760;19.604;2023-02-23T13:56:15;100331.84;;;14.71;43.42
28628;BME280;15815;46.760;19.604;2023-02-23T13:58:49;100335.69;;;14.61;42.75
28628;BME280;15815;46.760;19.604;2023-02-23T14:01:35;100321.97;;;14.60;42.58
28628;BME280;15815;46.760;19.604;2023-02-23T14:04:04;100334.38;;;14.66;43.42
28628;BME280;15815;46.760;19.604;2023-02-23T14:06:32;100341.41;;;14.58;43.39
28628;BME280;15815;46.760;19.604;2023-02-23T14:09:27;100335.06;;;14.50;42.77
28628;BME280;15815;46.760;19.604;2023-02-23T14:12:03;100336.09;;;14.36;43.79
28628;BME280;15815;46.760;19.604;2023-02-23T14:22:30;100332.03;;;14.37;43.54
28628;BME280;15815;46.760;19.604;2023-02-23T14:27:59;100332.22;;;14.27;44.01
28628;BME280;15815;46.760;19.604;2023-02-23T14:30:28;100329.19;;;14.14;44.58
28628;BME280;15815;46.760;19.604;2023-02-23T14:33:00;100322.47;;;14.04;44.55
28628;BME280;15815;46.760;19.604;2023-02-23T14:38:00;100325.69;;;14.06;44.67
28628;BME280;15815;46.760;19.604;2023-02-23T14:40:33;100327.03;;;13.98;44.61
28628;BME280;15815;46.760;19.604;2023-02-23T14:43:03;100315.31;;;13.96;44.54
28628;BME280;15815;46.760;19.604;2023-02-23T14:45:53;100326.63;;;13.96;44.94
28628;BME280;15815;46.760;19.604;2023-02-23T14:48:19;100305.25;;;13.95;44.62
28628;BME280;15815;46.760;19.604;2023-02-23T14:50:49;100321.03;;;13.92;45.21
28628;BME280;15815;46.760;19.604;2023-02-23T14:53:21;100315.38;;;13.92;45.57
28628;BME280;15815;46.760;19.604;2023-02-23T14:55:49;100321.78;;;13.97;45.35
28628;BME280;15815;46.760;19.604;2023-02-23T14:58:22;100322.25;;;13.91;45.41